createdAt,value
2023-01-17T00:11:18.452Z,3.2
2023-01-17T00:25:49.793Z,3.2
2023-01-17T00:40:21.356Z,3.1
2023-01-17T00:54:52.842Z,2.7
2023-01-17T01:09:23.254Z,2.7
2023-01-17T01:23:54.219Z,2.7
2023-01-17T01:38:26.047Z,2.8
2023-01-17T01:52:56.524Z,2.7
2023-01-17T02:07:42.214Z,2.7
2023-01-17T02:22:07.130Z,2.5
2023-01-17T02:36:39.787Z,2.5
2023-01-17T02:51:11.479Z,2.4
2023-01-17T03:05:42.362Z,2.5
2023-01-17T03:20:14.401Z,2.5
2023-01-17T03:34:46.178Z,2.3
2023-01-17T03:49:16.816Z,2.2
2023-01-17T04:03:48.544Z,2
2023-01-17T04:18:19.966Z,2
2023-01-17T04:32:49.977Z,2
2023-01-17T04:47:22.081Z,2
2023-01-17T05:01:53.463Z,2
2023-01-17T05:16:26.041Z,2
2023-01-17T05:30:57.749Z,1.8
2023-01-17T05:45:31.813Z,1.8
2023-01-17T06:00:02.963Z,1.9
2023-01-17T06:14:33.564Z,1.7
2023-01-17T06:29:05.194Z,2
2023-01-17T06:43:33.263Z,2
2023-01-17T06:58:05.752Z,1.9
2023-01-17T07:12:38.474Z,1.9
2023-01-17T07:27:10.840Z,1.9
2023-01-17T07:41:43.814Z,2.1
2023-01-17T07:56:13.706Z,1.9
2023-01-17T08:10:46.103Z,2.1
2023-01-17T08:25:14.789Z,1.9
2023-01-17T08:39:46.554Z,1.9
2023-01-17T08:54:17.724Z,1.9
2023-01-17T09:08:48.888Z,2
2023-01-17T09:23:20.793Z,2
2023-01-17T09:37:53.072Z,2.2
2023-01-17T09:52:24.733Z,2.3
2023-01-17T10:06:56.149Z,2.5
2023-01-17T10:21:27.949Z,2.4
2023-01-17T10:36:00.338Z,2.5
2023-01-17T10:50:32.951Z,2.5
2023-01-17T11:05:04.961Z,2.6
2023-01-17T11:19:37.305Z,2.6
2023-01-17T11:34:08.984Z,2.7
2023-01-17T11:48:41.387Z,3
2023-01-17T12:03:13.364Z,2.9
2023-01-17T12:17:46.210Z,3.1
2023-01-17T12:32:16.985Z,3.3
2023-01-17T12:46:48.272Z,2.8
2023-01-17T13:01:19.931Z,2.8
2023-01-17T13:15:51.391Z,2.9
2023-01-17T13:30:24.519Z,3.2
2023-01-17T13:44:57.121Z,3.2
2023-01-17T13:59:27.780Z,3.3
2023-01-17T14:13:57.762Z,3
2023-01-17T14:28:29.210Z,3
2023-01-17T14:43:00.094Z,3
2023-01-17T14:57:31.350Z,3
2023-01-17T15:12:02.990Z,2.7
2023-01-17T15:26:35.112Z,2.5
2023-01-17T15:41:06.546Z,2.1
2023-01-17T15:55:38.244Z,1.9
2023-01-17T16:10:10.364Z,1.7
2023-01-17T16:24:40.660Z,1.7
2023-01-17T16:39:10.846Z,1.5
2023-01-17T16:53:41.605Z,1.3
2023-01-17T17:08:13.119Z,1.2
2023-01-17T17:22:44.853Z,0.9
2023-01-17T17:37:17.643Z,1
2023-01-17T17:51:47.448Z,0.9
2023-01-17T18:06:18.853Z,0.5
2023-01-17T18:20:50.251Z,0.7
2023-01-17T18:35:22.150Z,0.6
2023-01-17T18:49:54.003Z,0.3
2023-01-17T19:04:25.604Z,0.1
2023-01-17T19:18:56.834Z,0.3
2023-01-17T19:33:28.931Z,0.1
2023-01-17T19:47:58.299Z,0.1
2023-01-17T20:02:30.305Z,0
2023-01-17T20:17:02.484Z,-0.2
2023-01-17T20:31:33.407Z,-0.3
2023-01-17T20:46:02.739Z,-0.5
2023-01-17T21:00:33.885Z,-0.5
2023-01-17T21:15:06.002Z,-0.6
2023-01-17T21:29:36.720Z,-0.6
2023-01-17T21:44:08.213Z,-0.7
2023-01-17T21:58:38.177Z,-0.9
2023-01-17T22:13:06.834Z,-0.9
2023-01-17T22:27:40.689Z,-1.1
2023-01-17T22:42:12.417Z,-1.2
2023-01-17T22:56:43.147Z,-1.4
2023-01-17T23:11:14.934Z,-1.3
2023-01-17T23:25:45.046Z,-1.2
2023-01-17T23:40:16.846Z,-1.2
2023-01-17T23:54:47.914Z,-1.5
